sensor_id;sensor_type;location;lat;lon;timestamp;P1;durP1;ratioP1;P2;durP2;ratioP2
20671;SDS011;10495;50.922;4.760;2023-03-23T00:01:14;3.63;;;3.23;;
20671;SDS011;10495;50.922;4.760;2023-03-23T00:03:48;5.97;;;2.93;;
20671;SDS011;10495;50.922;4.760;2023-03-23T00:06:16;5.07;;;3.23;;
20671;SDS011;10495;50.922;4.760;2023-03-23T00:08:46;3.90;;;3.10;;
20671;SDS011;10495;50.922;4.760;2023-03-23T00:11:15;4.03;;;3.00;;
20671;SDS011;10495;50.922;4.760;2023-03-23T00:13:44;4.83;;;3.70;;
20671;SDS011;10495;50.922;4.760;2023-03-23T00:16:11;6.03;;;3.50;;
20671;SDS011;10495;50.922;4.760;2023-03-23T00:18:54;4.30;;;3.43;;
20671;SDS011;10495;50.922;4.760;2023-03-23T00:21:21;5.30;;;3.40;;
20671;SDS011;10495;50.922;4.760;2023-03-23T00:23:58;5.20;;;3.40;;
20671;SDS011;10495;50.922;4.760;2023-03-23T00:26:29;4.53;;;3.33;;
20671;SDS011;10495;50.922;4.760;2023-03-23T00:28:58;4.87;;;3.37;;
20671;SDS011;10495;50.922;4.760;2023-03-23T00:31:25;6.33;;;3.63;;
20671;SDS011;10495;50.922;4.760;2023-03-23T00:33:56;4.23;;;3.47;;
20671;SDS011;10495;50.922;4.760;2023-03-23T00:36:23;3.63;;;3.23;;
20671;SDS011;10495;50.922;4.760;2023-03-23T00:38:51;4.37;;;3.30;;
20671;SDS011;10495;50.922;4.760;2023-03-23T00:41:16;7.47;;;3.80;;
20671;SDS011;10495;50.922;4.760;2023-03-23T00:43:42;7.80;;;3.53;;
20671;SDS011;10495;50.922;4.760;2023-03-23T00:46:08;5.10;;;2.93;;
20671;SDS011;10495;50.922;4.760;2023-03-23T00:48:35;5.10;;;3.17;;
20671;SDS011;10495;50.922;4.760;2023-03-23T00:51:10;4.90;;;3.40;;
20671;SDS011;10495;50.922;4.760;2023-03-23T00:53:36;3.77;;;3.20;;
20671;SDS011;10495;50.922;4.760;2023-03-23T00:56:03;3.60;;;3.30;;
20671;SDS011;10495;50.922;4.760;2023-03-23T00:58:29;7.53;;;3.43;;
20671;SDS011;10495;50.922;4.760;2023-03-23T01:00:54;4.60;;;3.40;;
20671;SDS011;10495;50.922;4.760;2023-03-23T01:03:21;3.67;;;3.13;;
20671;SDS011;10495;50.922;4.760;2023-03-23T01:05:50;3.87;;;3.33;;
20671;SDS011;10495;50.922;4.760;2023-03-23T01:08:17;4.43;;;3.47;;
20671;SDS011;10495;50.922;4.760;2023-03-23T01:10:44;5.10;;;3.37;;
20671;SDS011;10495;50.922;4.760;2023-03-23T01:13:10;4.63;;;3.40;;
20671;SDS011;10495;50.922;4.760;2023-03-23T01:15:36;3.67;;;2.90;;
20671;SDS011;10495;50.922;4.760;2023-03-23T01:18:02;5.83;;;3.17;;
20671;SDS011;10495;50.922;4.760;2023-03-23T01:20:28;4.93;;;3.43;;
20671;SDS011;10495;50.922;4.760;2023-03-23T01:22:56;4.50;;;3.10;;
20671;SDS011;10495;50.922;4.760;2023-03-23T01:25:25;5.27;;;3.27;;
20671;SDS011;10495;50.922;4.760;2023-03-23T01:27:53;6.47;;;3.40;;
20671;SDS011;10495;50.922;4.760;2023-03-23T01:30:19;5.33;;;3.33;;
20671;SDS011;10495;50.922;4.760;2023-03-23T01:32:44;3.63;;;3.10;;
20671;SDS011;10495;50.922;4.760;2023-03-23T01:35:11;4.27;;;3.40;;
20671;SDS011;10495;50.922;4.760;2023-03-23T01:37:37;7.37;;;3.83;;
20671;SDS011;10495;50.922;4.760;2023-03-23T01:40:03;3.67;;;3.17;;
20671;SDS011;10495;50.922;4.760;2023-03-23T01:42:31;3.70;;;3.13;;
20671;SDS011;10495;50.922;4.760;2023-03-23T01:47:47;3.60;;;3.00;;
20671;SDS011;10495;50.922;4.760;2023-03-23T01:50:18;6.23;;;3.73;;
20671;SDS011;10495;50.922;4.760;2023-03-23T01:52:48;3.87;;;3.40;;
20671;SDS011;10495;50.922;4.760;2023-03-23T01:55:14;3.50;;;3.00;;
20671;SDS011;10495;50.922;4.760;2023-03-23T01:57:40;3.23;;;2.87;;
20671;SDS011;10495;50.922;4.760;2023-03-23T02:00:07;3.60;;;3.23;;
20671;SDS011;10495;50.922;4.760;2023-03-23T02:02:40;3.67;;;3.17;;
20671;SDS011;10495;50.922;4.760;2023-03-23T02:05:14;4.77;;;2.87;;
20671;SDS011;10495;50.922;4.760;2023-03-23T02:07:53;6.40;;;3.50;;
20671;SDS011;10495;50.922;4.760;2023-03-23T02:10:23;6.00;;;3.53;;
20671;SDS011;10495;50.922;4.760;2023-03-23T02:12:49;5.77;;;3.37;;
20671;SDS011;10495;50.922;4.760;2023-03-23T02:15:15;4.77;;;3.10;;
20671;SDS011;10495;50.922;4.760;2023-03-23T02:17:45;6.20;;;3.20;;
20671;SDS011;10495;50.922;4.760;2023-03-23T02:31:43;6.53;;;3.40;;
20671;SDS011;10495;50.922;4.760;2023-03-23T02:34:38;4.20;;;2.83;;
20671;SDS011;10495;50.922;4.760;2023-03-23T02:37:14;6.50;;;3.20;;
20671;SDS011;10495;50.922;4.760;2023-03-23T02:39:48;4.60;;;2.87;;
20671;SDS011;10495;50.922;4.760;2023-03-23T02:42:23;3.97;;;3.00;;
20671;SDS011;10495;50.922;4.760;2023-03-23T02:44:52;5.03;;;3.10;;
20671;SDS011;10495;50.922;4.760;2023-03-23T02:47:22;5.57;;;3.00;;
20671;SDS011;10495;50.922;4.760;2023-03-23T02:49:50;3.70;;;2.80;;
20671;SDS011;10495;50.922;4.760;2023-03-23T02:52:19;6.73;;;2.73;;
20671;SDS011;10495;50.922;4.760;2023-03-23T02:54:48;5.37;;;2.43;;
20671;SDS011;10495;50.922;4.760;2023-03-23T02:57:16;5.27;;;2.83;;
20671;SDS011;10495;50.922;4.760;2023-03-23T02:59:42;6.13;;;2.90;;
20671;SDS011;10495;50.922;4.760;2023-03-23T03:02:12;4.30;;;2.70;;
20671;SDS011;10495;50.922;4.760;2023-03-23T03:04:58;3.60;;;2.30;;
20671;SDS011;10495;50.922;4.760;2023-03-23T03:12:56;5.50;;;2.73;;
20671;SDS011;10495;50.922;4.760;2023-03-23T03:15:45;4.40;;;2.37;;
20671;SDS011;10495;50.922;4.760;2023-03-23T03:18:18;5.83;;;2.33;;
20671;SDS011;10495;50.922;4.760;2023-03-23T03:20:50;2.90;;;2.37;;
20671;SDS011;10495;50.922;4.760;2023-03-23T03:23:19;3.57;;;2.33;;
20671;SDS011;10495;50.922;4.760;2023-03-23T03:25:47;4.37;;;2.23;;
20671;SDS011;10495;50.922;4.760;2023-03-23T03:28:16;4.37;;;2.33;;
20671;SDS011;10495;50.922;4.760;2023-03-23T03:30:46;3.97;;;2.30;;
20671;SDS011;10495;50.922;4.760;2023-03-23T03:33:16;3.40;;;2.47;;
20671;SDS011;10495;50.922;4.760;2023-03-23T03:35:42;2.70;;;2.43;;
20671;SDS011;10495;50.922;4.760;2023-03-23T03:38:10;4.10;;;2.87;;
20671;SDS011;10495;50.922;4.760;2023-03-23T03:40:37;3.70;;;2.23;;
20671;SDS011;10495;50.922;4.760;2023-03-23T03:43:03;2.97;;;2.40;;
20671;SDS011;10495;50.922;4.760;2023-03-23T03:45:30;7.57;;;2.47;;
20671;SDS011;10495;50.922;4.760;2023-03-23T03:47:56;4.93;;;2.50;;
20671;SDS011;10495;50.922;4.760;2023-03-23T03:50:22;2.43;;;2.10;;
20671;SDS011;10495;50.922;4.760;2023-03-23T03:52:48;6.33;;;2.53;;
20671;SDS011;10495;50.922;4.760;2023-03-23T03:55:14;5.17;;;2.40;;
20671;SDS011;10495;50.922;4.760;2023-03-23T03:57:41;4.93;;;2.97;;
20671;SDS011;10495;50.922;4.760;2023-03-23T04:00:07;3.10;;;2.37;;
20671;SDS011;10495;50.922;4.760;2023-03-23T04:02:44;4.73;;;2.10;;
20671;SDS011;10495;50.922;4.760;2023-03-23T04:05:18;4.33;;;2.57;;
20671;SDS011;10495;50.922;4.760;2023-03-23T04:07:45;3.80;;;2.47;;
20671;SDS011;10495;50.922;4.760;2023-03-23T04:10:14;3.47;;;2.27;;
20671;SDS011;10495;50.922;4.760;2023-03-23T04:12:39;3.80;;;2.40;;
20671;SDS011;10495;50.922;4.760;2023-03-23T04:15:06;3.93;;;2.23;;
20671;SDS011;10495;50.922;4.760;2023-03-23T04:17:32;7.00;;;2.77;;
20671;SDS011;10495;50.922;4.760;2023-03-23T04:19:59;3.70;;;2.40;;
20671;SDS011;10495;50.922;4.760;2023-03-23T04:22:25;3.97;;;2.70;;
20671;SDS011;10495;50.922;4.760;2023-03-23T04:24:55;3.30;;;2.30;;
20671;SDS011;10495;50.922;4.760;2023-03-23T04:27:23;6.43;;;2.43;;
20671;SDS011;10495;50.922;4.760;2023-03-23T04:29:53;3.77;;;2.13;;
20671;SDS011;10495;50.922;4.760;2023-03-23T04:32:23;6.97;;;2.73;;
20671;SDS011;10495;50.922;4.760;2023-03-23T04:34:54;5.23;;;2.30;;
20671;SDS011;10495;50.922;4.760;2023-03-23T04:37:21;3.63;;;2.30;;
20671;SDS011;10495;50.922;4.760;2023-03-23T04:39:51;3.70;;;2.40;;
20671;SDS011;10495;50.922;4.760;2023-03-23T04:42:25;4.60;;;2.60;;
20671;SDS011;10495;50.922;4.760;2023-03-23T04:44:52;8.03;;;2.50;;
20671;SDS011;10495;50.922;4.760;2023-03-23T04:47:20;4.37;;;2.27;;
20671;SDS011;10495;50.922;4.760;2023-03-23T04:49:46;9.50;;;2.47;;
20671;SDS011;10495;50.922;4.760;2023-03-23T04:52:12;8.00;;;2.27;;
20671;SDS011;10495;50.922;4.760;2023-03-23T04:54:38;6.33;;;2.30;;
20671;SDS011;10495;50.922;4.760;2023-03-23T04:57:04;6.03;;;2.17;;
20671;SDS011;10495;50.922;4.760;2023-03-23T04:59:30;4.93;;;2.10;;
20671;SDS011;10495;50.922;4.760;2023-03-23T05:01:56;3.90;;;1.80;;
20671;SDS011;10495;50.922;4.760;2023-03-23T05:04:22;3.43;;;1.43;;
20671;SDS011;10495;50.922;4.760;2023-03-23T05:06:50;7.00;;;2.20;;
20671;SDS011;10495;50.922;4.760;2023-03-23T05:09:16;3.60;;;2.20;;
20671;SDS011;10495;50.922;4.760;2023-03-23T05:11:42;7.93;;;1.90;;
20671;SDS011;10495;50.922;4.760;2023-03-23T05:14:08;7.60;;;2.00;;
20671;SDS011;10495;50.922;4.760;2023-03-23T05:16:33;5.07;;;1.70;;
20671;SDS011;10495;50.922;4.760;2023-03-23T05:19:01;3.13;;;1.77;;
20671;SDS011;10495;50.922;4.760;2023-03-23T05:21:27;4.40;;;1.67;;
20671;SDS011;10495;50.922;4.760;2023-03-23T05:23:53;8.77;;;2.07;;
20671;SDS011;10495;50.922;4.760;2023-03-23T05:26:19;3.33;;;1.70;;
20671;SDS011;10495;50.922;4.760;2023-03-23T05:28:45;2.63;;;1.60;;
20671;SDS011;10495;50.922;4.760;2023-03-23T05:31:11;5.27;;;1.90;;
20671;SDS011;10495;50.922;4.760;2023-03-23T05:33:38;4.33;;;1.60;;
20671;SDS011;10495;50.922;4.760;2023-03-23T05:36:04;4.70;;;1.53;;
20671;SDS011;10495;50.922;4.760;2023-03-23T05:38:31;3.37;;;1.80;;
20671;SDS011;10495;50.922;4.760;2023-03-23T05:41:00;6.03;;;1.67;;
20671;SDS011;10495;50.922;4.760;2023-03-23T05:43:26;3.90;;;1.60;;
20671;SDS011;10495;50.922;4.760;2023-03-23T05:45:52;6.07;;;1.63;;
20671;SDS011;10495;50.922;4.760;2023-03-23T05:48:18;3.63;;;1.83;;
20671;SDS011;10495;50.922;4.760;2023-03-23T05:50:43;3.93;;;1.83;;
20671;SDS011;10495;50.922;4.760;2023-03-23T05:53:09;6.53;;;1.60;;
20671;SDS011;10495;50.922;4.760;2023-03-23T05:55:35;6.40;;;1.50;;
20671;SDS011;10495;50.922;4.760;2023-03-23T05:58:01;6.23;;;1.90;;
20671;SDS011;10495;50.922;4.760;2023-03-23T06:00:26;3.47;;;1.60;;
20671;SDS011;10495;50.922;4.760;2023-03-23T06:02:55;4.03;;;1.90;;
20671;SDS011;10495;50.922;4.760;2023-03-23T06:05:22;7.87;;;2.20;;
20671;SDS011;10495;50.922;4.760;2023-03-23T06:07:48;5.80;;;2.00;;
20671;SDS011;10495;50.922;4.760;2023-03-23T06:10:14;4.37;;;1.67;;
20671;SDS011;10495;50.922;4.760;2023-03-23T06:12:41;2.37;;;1.50;;
20671;SDS011;10495;50.922;4.760;2023-03-23T06:15:07;3.73;;;1.73;;
20671;SDS011;10495;50.922;4.760;2023-03-23T06:17:34;4.87;;;1.70;;
20671;SDS011;10495;50.922;4.760;2023-03-23T06:20:01;5.97;;;2.07;;
20671;SDS011;10495;50.922;4.760;2023-03-23T06:22:29;5.30;;;2.17;;
20671;SDS011;10495;50.922;4.760;2023-03-23T06:24:55;2.83;;;1.57;;
20671;SDS011;10495;50.922;4.760;2023-03-23T06:27:22;4.53;;;1.73;;
20671;SDS011;10495;50.922;4.760;2023-03-23T06:29:48;4.93;;;1.60;;
20671;SDS011;10495;50.922;4.760;2023-03-23T06:32:14;6.83;;;2.10;;
20671;SDS011;10495;50.922;4.760;2023-03-23T06:34:40;4.17;;;1.83;;
20671;SDS011;10495;50.922;4.760;2023-03-23T06:37:08;3.90;;;1.80;;
20671;SDS011;10495;50.922;4.760;2023-03-23T06:39:35;5.63;;;1.83;;
20671;SDS011;10495;50.922;4.760;2023-03-23T06:42:03;3.30;;;1.77;;
20671;SDS011;10495;50.922;4.760;2023-03-23T06:44:29;3.87;;;1.70;;
20671;SDS011;10495;50.922;4.760;2023-03-23T06:46:54;4.90;;;1.80;;
20671;SDS011;10495;50.922;4.760;2023-03-23T06:49:20;7.07;;;2.10;;
20671;SDS011;10495;50.922;4.760;2023-03-23T06:51:46;3.87;;;2.10;;
20671;SDS011;10495;50.922;4.760;2023-03-23T06:54:11;6.67;;;2.03;;
20671;SDS011;10495;50.922;4.760;2023-03-23T06:56:37;3.83;;;2.03;;
20671;SDS011;10495;50.922;4.760;2023-03-23T06:59:02;11.90;;;2.30;;
20671;SDS011;10495;50.922;4.760;2023-03-23T07:01:28;4.00;;;1.60;;
20671;SDS011;10495;50.922;4.760;2023-03-23T07:03:55;4.83;;;1.83;;
20671;SDS011;10495;50.922;4.760;2023-03-23T07:06:21;4.87;;;1.90;;
20671;SDS011;10495;50.922;4.760;2023-03-23T07:08:47;4.57;;;1.90;;
20671;SDS011;10495;50.922;4.760;2023-03-23T07:11:13;4.37;;;2.00;;
20671;SDS011;10495;50.922;4.760;2023-03-23T07:13:38;4.03;;;1.70;;
20671;SDS011;10495;50.922;4.760;2023-03-23T07:16:04;4.50;;;1.80;;
20671;SDS011;10495;50.922;4.760;2023-03-23T07:18:31;4.77;;;2.03;;
20671;SDS011;10495;50.922;4.760;2023-03-23T07:20:57;5.27;;;1.63;;
20671;SDS011;10495;50.922;4.760;2023-03-23T07:23:23;5.07;;;1.97;;
20671;SDS011;10495;50.922;4.760;2023-03-23T07:25:48;4.80;;;1.57;;
20671;SDS011;10495;50.922;4.760;2023-03-23T07:28:14;5.47;;;2.00;;
20671;SDS011;10495;50.922;4.760;2023-03-23T07:30:41;5.70;;;2.47;;
20671;SDS011;10495;50.922;4.760;2023-03-23T07:33:07;1.83;;;1.00;;
20671;SDS011;10495;50.922;4.760;2023-03-23T07:35:34;2.37;;;1.00;;
20671;SDS011;10495;50.922;4.760;2023-03-23T07:38:00;2.47;;;0.90;;
20671;SDS011;10495;50.922;4.760;2023-03-23T07:40:27;1.77;;;0.90;;
20671;SDS011;10495;50.922;4.760;2023-03-23T07:42:54;2.97;;;1.10;;
20671;SDS011;10495;50.922;4.760;2023-03-23T07:45:22;1.80;;;0.70;;
20671;SDS011;10495;50.922;4.760;2023-03-23T07:47:47;2.87;;;1.20;;
20671;SDS011;10495;50.922;4.760;2023-03-23T07:50:13;2.23;;;0.90;;
20671;SDS011;10495;50.922;4.760;2023-03-23T07:52:39;3.20;;;0.70;;
20671;SDS011;10495;50.922;4.760;2023-03-23T07:55:07;1.00;;;0.80;;
20671;SDS011;10495;50.922;4.760;2023-03-23T07:57:34;0.60;;;0.60;;
20671;SDS011;10495;50.922;4.760;2023-03-23T07:59:59;2.03;;;0.80;;
20671;SDS011;10495;50.922;4.760;2023-03-23T08:02:25;3.57;;;0.73;;
20671;SDS011;10495;50.922;4.760;2023-03-23T08:04:51;6.13;;;1.00;;
20671;SDS011;10495;50.922;4.760;2023-03-23T08:07:18;0.83;;;0.63;;
20671;SDS011;10495;50.922;4.760;2023-03-23T08:09:45;2.97;;;1.00;;
20671;SDS011;10495;50.922;4.760;2023-03-23T08:12:11;2.30;;;1.00;;
20671;SDS011;10495;50.922;4.760;2023-03-23T08:14:37;3.67;;;1.50;;
20671;SDS011;10495;50.922;4.760;2023-03-23T08:17:03;3.50;;;1.10;;
20671;SDS011;10495;50.922;4.760;2023-03-23T08:19:29;3.93;;;0.90;;
20671;SDS011;10495;50.922;4.760;2023-03-23T08:21:55;2.17;;;1.47;;
20671;SDS011;10495;50.922;4.760;2023-03-23T08:24:21;3.10;;;1.40;;
20671;SDS011;10495;50.922;4.760;2023-03-23T08:26:46;6.23;;;1.90;;
20671;SDS011;10495;50.922;4.760;2023-03-23T08:29:12;2.17;;;1.70;;
20671;SDS011;10495;50.922;4.760;2023-03-23T08:31:38;4.37;;;1.70;;
20671;SDS011;10495;50.922;4.760;2023-03-23T08:34:04;2.93;;;1.80;;
20671;SDS011;10495;50.922;4.760;2023-03-23T08:36:33;2.93;;;1.83;;
20671;SDS011;10495;50.922;4.760;2023-03-23T08:39:00;5.23;;;2.23;;
20671;SDS011;10495;50.922;4.760;2023-03-23T08:41:25;4.47;;;1.83;;
20671;SDS011;10495;50.922;4.760;2023-03-23T08:43:51;2.53;;;1.57;;
20671;SDS011;10495;50.922;4.760;2023-03-23T08:46:17;5.47;;;1.53;;
20671;SDS011;10495;50.922;4.760;2023-03-23T08:48:44;3.50;;;1.40;;
20671;SDS011;10495;50.922;4.760;2023-03-23T08:51:10;4.37;;;1.20;;
20671;SDS011;10495;50.922;4.760;2023-03-23T08:53:37;5.20;;;1.30;;
20671;SDS011;10495;50.922;4.760;2023-03-23T08:56:04;5.27;;;1.30;;
20671;SDS011;10495;50.922;4.760;2023-03-23T08:58:31;2.47;;;1.00;;
20671;SDS011;10495;50.922;4.760;2023-03-23T09:00:58;4.27;;;1.20;;
20671;SDS011;10495;50.922;4.760;2023-03-23T09:03:24;3.40;;;1.40;;
20671;SDS011;10495;50.922;4.760;2023-03-23T09:05:50;4.07;;;1.10;;
20671;SDS011;10495;50.922;4.760;2023-03-23T09:08:16;2.07;;;1.10;;
20671;SDS011;10495;50.922;4.760;2023-03-23T09:10:42;2.97;;;1.17;;
20671;SDS011;10495;50.922;4.760;2023-03-23T09:13:08;3.23;;;1.37;;
20671;SDS011;10495;50.922;4.760;2023-03-23T09:15:33;1.70;;;0.93;;
20671;SDS011;10495;50.922;4.760;2023-03-23T09:17:59;2.97;;;1.27;;
20671;SDS011;10495;50.922;4.760;2023-03-23T09:20:26;3.00;;;1.10;;
20671;SDS011;10495;50.922;4.760;2023-03-23T09:22:53;5.07;;;1.53;;
20671;SDS011;10495;50.922;4.760;2023-03-23T09:25:21;3.23;;;1.80;;
20671;SDS011;10495;50.922;4.760;2023-03-23T09:27:51;5.47;;;2.67;;
20671;SDS011;10495;50.922;4.760;2023-03-23T09:30:21;4.40;;;1.90;;
20671;SDS011;10495;50.922;4.760;2023-03-23T09:32:48;5.23;;;1.43;;
20671;SDS011;10495;50.922;4.760;2023-03-23T09:35:15;3.07;;;1.40;;
20671;SDS011;10495;50.922;4.760;2023-03-23T09:37:41;2.40;;;1.20;;
20671;SDS011;10495;50.922;4.760;2023-03-23T09:40:30;2.53;;;1.20;;
20671;SDS011;10495;50.922;4.760;2023-03-23T09:46:24;1.87;;;1.20;;
20671;SDS011;10495;50.922;4.760;2023-03-23T09:49:17;3.43;;;1.00;;
20671;SDS011;10495;50.922;4.760;2023-03-23T09:52:53;3.40;;;1.40;;
20671;SDS011;10495;50.922;4.760;2023-03-23T09:55:20;2.80;;;0.90;;
20671;SDS011;10495;50.922;4.760;2023-03-23T10:00:52;1.40;;;1.00;;
20671;SDS011;10495;50.922;4.760;2023-03-23T10:03:41;1.70;;;1.20;;
20671;SDS011;10495;50.922;4.760;2023-03-23T10:06:11;1.07;;;0.97;;
20671;SDS011;10495;50.922;4.760;2023-03-23T10:08:43;3.13;;;1.30;;
20671;SDS011;10495;50.922;4.760;2023-03-23T10:16:27;1.43;;;1.00;;
20671;SDS011;10495;50.922;4.760;2023-03-23T10:19:01;2.90;;;1.97;;
20671;SDS011;10495;50.922;4.760;2023-03-23T10:21:35;1.70;;;1.07;;
20671;SDS011;10495;50.922;4.760;2023-03-23T10:24:10;3.50;;;1.43;;
20671;SDS011;10495;50.922;4.760;2023-03-23T10:29:17;1.97;;;1.40;;
20671;SDS011;10495;50.922;4.760;2023-03-23T10:32:16;3.20;;;1.50;;
20671;SDS011;10495;50.922;4.760;2023-03-23T10:35:00;4.03;;;1.93;;
20671;SDS011;10495;50.922;4.760;2023-03-23T10:37:32;2.70;;;1.80;;
20671;SDS011;10495;50.922;4.760;2023-03-23T10:40:03;2.37;;;1.50;;
20671;SDS011;10495;50.922;4.760;2023-03-23T10:42:35;2.80;;;1.30;;
20671;SDS011;10495;50.922;4.760;2023-03-23T10:45:24;3.40;;;1.50;;
20671;SDS011;10495;50.922;4.760;2023-03-23T10:47:56;1.60;;;1.50;;
20671;SDS011;10495;50.922;4.760;2023-03-23T10:50:28;3.07;;;1.97;;
20671;SDS011;10495;50.922;4.760;2023-03-23T10:52:57;3.07;;;1.90;;
20671;SDS011;10495;50.922;4.760;2023-03-23T10:55:34;6.23;;;1.80;;
20671;SDS011;10495;50.922;4.760;2023-03-23T10:58:26;5.63;;;1.90;;
20671;SDS011;10495;50.922;4.760;2023-03-23T11:00:55;2.37;;;1.60;;
20671;SDS011;10495;50.922;4.760;2023-03-23T11:03:26;3.43;;;1.90;;
20671;SDS011;10495;50.922;4.760;2023-03-23T11:06:11;2.47;;;1.80;;
20671;SDS011;10495;50.922;4.760;2023-03-23T11:08:51;5.10;;;2.10;;
20671;SDS011;10495;50.922;4.760;2023-03-23T11:11:30;4.33;;;2.00;;
20671;SDS011;10495;50.922;4.760;2023-03-23T11:13:58;4.17;;;2.03;;
20671;SDS011;10495;50.922;4.760;2023-03-23T11:16:29;5.47;;;2.00;;
20671;SDS011;10495;50.922;4.760;2023-03-23T11:18:58;4.97;;;1.83;;
20671;SDS011;10495;50.922;4.760;2023-03-23T11:21:25;6.87;;;2.23;;
20671;SDS011;10495;50.922;4.760;2023-03-23T11:23:55;4.67;;;2.23;;
20671;SDS011;10495;50.922;4.760;2023-03-23T11:26:28;5.93;;;2.40;;
20671;SDS011;10495;50.922;4.760;2023-03-23T11:31:35;5.30;;;2.57;;
20671;SDS011;10495;50.922;4.760;2023-03-23T11:34:04;6.37;;;3.17;;
20671;SDS011;10495;50.922;4.760;2023-03-23T11:37:01;6.90;;;2.40;;
20671;SDS011;10495;50.922;4.760;2023-03-23T11:39:32;5.03;;;2.50;;
20671;SDS011;10495;50.922;4.760;2023-03-23T11:42:01;7.10;;;2.83;;
20671;SDS011;10495;50.922;4.760;2023-03-23T11:44:41;9.43;;;3.57;;
20671;SDS011;10495;50.922;4.760;2023-03-23T11:47:25;7.07;;;4.20;;
20671;SDS011;10495;50.922;4.760;2023-03-23T11:50:12;7.60;;;4.23;;
20671;SDS011;10495;50.922;4.760;2023-03-23T11:53:22;9.13;;;5.03;;
20671;SDS011;10495;50.922;4.760;2023-03-23T11:55:51;7.20;;;4.93;;
20671;SDS011;10495;50.922;4.760;2023-03-23T11:58:28;7.17;;;4.77;;
20671;SDS011;10495;50.922;4.760;2023-03-23T12:12:29;6.37;;;2.70;;
20671;SDS011;10495;50.922;4.760;2023-03-23T12:17:58;7.63;;;2.60;;
20671;SDS011;10495;50.922;4.760;2023-03-23T12:20:32;6.77;;;2.77;;
20671;SDS011;10495;50.922;4.760;2023-03-23T12:26:34;4.27;;;2.10;;
20671;SDS011;10495;50.922;4.760;2023-03-23T12:47:59;6.40;;;2.37;;
20671;SDS011;10495;50.922;4.760;2023-03-23T12:50:35;8.13;;;2.07;;
20671;SDS011;10495;50.922;4.760;2023-03-23T12:53:10;9.90;;;2.43;;
20671;SDS011;10495;50.922;4.760;2023-03-23T12:56:02;6.70;;;2.30;;
20671;SDS011;10495;50.922;4.760;2023-03-23T12:58:55;5.93;;;1.97;;
20671;SDS011;10495;50.922;4.760;2023-03-23T13:01:32;4.10;;;2.20;;
20671;SDS011;10495;50.922;4.760;2023-03-23T13:04:47;7.50;;;2.20;;
20671;SDS011;10495;50.922;4.760;2023-03-23T13:07:01;5.17;;;2.30;;
20671;SDS011;10495;50.922;4.760;2023-03-23T13:12:01;5.93;;;2.70;;
20671;SDS011;10495;50.922;4.760;2023-03-23T13:22:28;6.13;;;2.70;;
20671;SDS011;10495;50.922;4.760;2023-03-23T13:25:03;4.60;;;2.63;;
20671;SDS011;10495;50.922;4.760;2023-03-23T13:27:34;6.77;;;2.47;;
20671;SDS011;10495;50.922;4.760;2023-03-23T13:30:00;7.47;;;2.53;;
20671;SDS011;10495;50.922;4.760;2023-03-23T13:35:03;6.40;;;3.23;;
20671;SDS011;10495;50.922;4.760;2023-03-23T13:37:31;6.17;;;3.17;;
20671;SDS011;10495;50.922;4.760;2023-03-23T13:40:11;5.23;;;3.20;;
20671;SDS011;10495;50.922;4.760;2023-03-23T13:43:03;6.03;;;3.30;;
20671;SDS011;10495;50.922;4.760;2023-03-23T13:48:28;6.47;;;3.40;;
20671;SDS011;10495;50.922;4.760;2023-03-23T13:50:56;6.03;;;2.63;;
20671;SDS011;10495;50.922;4.760;2023-03-23T13:56:21;7.23;;;3.20;;
20671;SDS011;10495;50.922;4.760;2023-03-23T13:59:07;6.30;;;2.83;;
20671;SDS011;10495;50.922;4.760;2023-03-23T14:01:41;6.77;;;2.93;;
20671;SDS011;10495;50.922;4.760;2023-03-23T14:04:14;7.70;;;2.77;;
20671;SDS011;10495;50.922;4.760;2023-03-23T14:06:42;4.67;;;2.43;;
20671;SDS011;10495;50.922;4.760;2023-03-23T14:12:03;6.30;;;2.70;;
20671;SDS011;10495;50.922;4.760;2023-03-23T14:19:46;7.97;;;2.83;;
20671;SDS011;10495;50.922;4.760;2023-03-23T14:22:24;7.77;;;2.77;;
20671;SDS011;10495;50.922;4.760;2023-03-23T14:24:50;6.83;;;2.67;;
20671;SDS011;10495;50.922;4.760;2023-03-23T14:27:18;6.23;;;2.50;;
20671;SDS011;10495;50.922;4.760;2023-03-23T14:29:46;7.47;;;2.70;;
20671;SDS011;10495;50.922;4.760;2023-03-23T14:32:22;6.47;;;2.47;;
20671;SDS011;10495;50.922;4.760;2023-03-23T14:34:51;6.13;;;2.77;;
20671;SDS011;10495;50.922;4.760;2023-03-23T14:37:17;8.83;;;2.47;;
20671;SDS011;10495;50.922;4.760;2023-03-23T14:39:47;6.10;;;1.93;;
20671;SDS011;10495;50.922;4.760;2023-03-23T14:42:35;5.83;;;2.57;;
20671;SDS011;10495;50.922;4.760;2023-03-23T14:45:02;6.93;;;2.50;;
20671;SDS011;10495;50.922;4.760;2023-03-23T14:50:05;6.27;;;2.07;;
20671;SDS011;10495;50.922;4.760;2023-03-23T14:52:47;7.40;;;2.73;;
20671;SDS011;10495;50.922;4.760;2023-03-23T14:55:15;6.77;;;2.47;;
20671;SDS011;10495;50.922;4.760;2023-03-23T14:57:46;6.53;;;2.47;;
20671;SDS011;10495;50.922;4.760;2023-03-23T15:00:17;10.67;;;2.57;;
20671;SDS011;10495;50.922;4.760;2023-03-23T15:02:51;5.77;;;2.53;;
20671;SDS011;10495;50.922;4.760;2023-03-23T15:05:29;9.97;;;2.83;;
20671;SDS011;10495;50.922;4.760;2023-03-23T15:08:00;7.87;;;2.87;;
20671;SDS011;10495;50.922;4.760;2023-03-23T15:10:53;6.33;;;2.80;;
20671;SDS011;10495;50.922;4.760;2023-03-23T15:13:23;6.20;;;2.70;;
20671;SDS011;10495;50.922;4.760;2023-03-23T15:15:50;5.53;;;2.40;;
20671;SDS011;10495;50.922;4.760;2023-03-23T15:18:33;6.40;;;2.80;;
20671;SDS011;10495;50.922;4.760;2023-03-23T15:21:10;6.73;;;2.47;;
20671;SDS011;10495;50.922;4.760;2023-03-23T15:23:57;7.10;;;2.60;;
20671;SDS011;10495;50.922;4.760;2023-03-23T15:26:41;4.90;;;2.30;;
20671;SDS011;10495;50.922;4.760;2023-03-23T15:29:18;8.57;;;2.70;;
20671;SDS011;10495;50.922;4.760;2023-03-23T15:31:48;4.37;;;1.97;;
20671;SDS011;10495;50.922;4.760;2023-03-23T15:34:40;5.10;;;1.97;;
20671;SDS011;10495;50.922;4.760;2023-03-23T15:37:29;6.83;;;2.70;;
20671;SDS011;10495;50.922;4.760;2023-03-23T15:39:55;6.00;;;2.23;;
20671;SDS011;10495;50.922;4.760;2023-03-23T15:42:23;9.63;;;2.37;;
20671;SDS011;10495;50.922;4.760;2023-03-23T15:48:11;4.87;;;2.40;;
20671;SDS011;10495;50.922;4.760;2023-03-23T15:50:38;5.90;;;2.60;;
20671;SDS011;10495;50.922;4.760;2023-03-23T15:53:29;5.63;;;2.17;;
20671;SDS011;10495;50.922;4.760;2023-03-23T15:56:05;6.00;;;2.60;;
20671;SDS011;10495;50.922;4.760;2023-03-23T15:58:45;6.93;;;2.40;;
20671;SDS011;10495;50.922;4.760;2023-03-23T16:01:12;6.33;;;2.20;;
20671;SDS011;10495;50.922;4.760;2023-03-23T16:06:39;6.57;;;2.17;;
20671;SDS011;10495;50.922;4.760;2023-03-23T16:09:07;3.10;;;2.00;;
20671;SDS011;10495;50.922;4.760;2023-03-23T16:11:37;6.30;;;2.50;;
20671;SDS011;10495;50.922;4.760;2023-03-23T16:14:02;6.03;;;2.07;;
20671;SDS011;10495;50.922;4.760;2023-03-23T16:16:30;5.70;;;2.40;;
20671;SDS011;10495;50.922;4.760;2023-03-23T16:18:58;5.73;;;2.80;;
20671;SDS011;10495;50.922;4.760;2023-03-23T16:21:24;6.27;;;2.70;;
20671;SDS011;10495;50.922;4.760;2023-03-23T16:23:50;8.10;;;2.50;;
20671;SDS011;10495;50.922;4.760;2023-03-23T16:26:16;6.20;;;2.40;;
20671;SDS011;10495;50.922;4.760;2023-03-23T16:28:42;8.97;;;2.53;;
20671;SDS011;10495;50.922;4.760;2023-03-23T16:31:09;8.13;;;2.60;;
20671;SDS011;10495;50.922;4.760;2023-03-23T16:33:35;7.97;;;2.80;;
20671;SDS011;10495;50.922;4.760;2023-03-23T16:36:00;7.03;;;2.37;;
20671;SDS011;10495;50.922;4.760;2023-03-23T16:38:27;6.37;;;2.47;;
20671;SDS011;10495;50.922;4.760;2023-03-23T16:40:52;7.37;;;2.33;;
20671;SDS011;10495;50.922;4.760;2023-03-23T16:43:18;6.60;;;2.50;;
20671;SDS011;10495;50.922;4.760;2023-03-23T16:45:45;9.37;;;2.60;;
20671;SDS011;10495;50.922;4.760;2023-03-23T16:48:14;6.67;;;2.30;;
20671;SDS011;10495;50.922;4.760;2023-03-23T16:50:42;6.63;;;2.50;;
20671;SDS011;10495;50.922;4.760;2023-03-23T16:53:08;6.73;;;2.53;;
20671;SDS011;10495;50.922;4.760;2023-03-23T16:55:35;7.73;;;2.90;;